sensor_id;sensor_type;location;lat;lon;timestamp;temperature;humidity
68109;SHT30;54893;49.864;19.084;2023-01-08T00:04:55;1.79;95.80
68109;SHT30;54893;49.864;19.084;2023-01-08T00:09:55;1.77;95.74
68109;SHT30;54893;49.864;19.084;2023-01-08T00:14:55;1.58;95.75
68109;SHT30;54893;49.864;19.084;2023-01-08T00:19:56;1.50;96.30
68109;SHT30;54893;49.864;19.084;2023-01-08T00:24:56;1.53;95.76
68109;SHT30;54893;49.864;19.084;2023-01-08T00:29:56;1.62;95.54
68109;SHT30;54893;49.864;19.084;2023-01-08T00:34:56;1.62;96.05
68109;SHT30;54893;49.864;19.084;2023-01-08T00:39:57;1.53;96.58
68109;SHT30;54893;49.864;19.084;2023-01-08T00:44:57;1.46;96.50
68109;SHT30;54893;49.864;19.084;2023-01-08T00:49:58;1.18;96.51
68109;SHT30;54893;49.864;19.084;2023-01-08T00:54:58;1.16;96.58
68109;SHT30;54893;49.864;19.084;2023-01-08T00:59:58;1.22;96.74
68109;SHT30;54893;49.864;19.084;2023-01-08T01:04:59;1.14;96.89
68109;SHT30;54893;49.864;19.084;2023-01-08T01:09:59;0.85;96.43
68109;SHT30;54893;49.864;19.084;2023-01-08T01:15:00;0.68;97.47
68109;SHT30;54893;49.864;19.084;2023-01-08T01:20:00;0.67;97.66
68109;SHT30;54893;49.864;19.084;2023-01-08T01:25:01;0.46;97.76
68109;SHT30;54893;49.864;19.084;2023-01-08T01:30:02;0.51;98.12
68109;SHT30;54893;49.864;19.084;2023-01-08T01:35:04;0.34;97.96
68109;SHT30;54893;49.864;19.084;2023-01-08T01:40:05;0.16;98.32
68109;SHT30;54893;49.864;19.084;2023-01-08T01:45:20;0.23;98.70
68109;SHT30;54893;49.864;19.084;2023-01-08T01:50:43;0.61;99.13
68109;SHT30;54893;49.864;19.084;2023-01-08T01:55:45;0.74;98.73
68109;SHT30;54893;49.864;19.084;2023-01-08T02:00:47;0.96;99.85
68109;SHT30;54893;49.864;19.084;2023-01-08T02:06:01;1.12;97.41
68109;SHT30;54893;49.864;19.084;2023-01-08T02:11:09;1.28;94.57
68109;SHT30;54893;49.864;19.084;2023-01-08T02:16:18;1.72;94.43
68109;SHT30;54893;49.864;19.084;2023-01-08T02:21:32;1.82;94.12
68109;SHT30;54893;49.864;19.084;2023-01-08T02:26:35;1.86;96.59
68109;SHT30;54893;49.864;19.084;2023-01-08T02:31:38;1.59;94.68
68109;SHT30;54893;49.864;19.084;2023-01-08T02:36:44;1.72;95.36
68109;SHT30;54893;49.864;19.084;2023-01-08T02:47:04;1.62;95.21
68109;SHT30;54893;49.864;19.084;2023-01-08T02:52:06;1.31;95.51
68109;SHT30;54893;49.864;19.084;2023-01-08T02:57:11;1.21;95.71
68109;SHT30;54893;49.864;19.084;2023-01-08T03:02:12;1.14;97.15
68109;SHT30;54893;49.864;19.084;2023-01-08T03:07:13;1.62;95.64
68109;SHT30;54893;49.864;19.084;2023-01-08T03:12:24;1.31;95.19
68109;SHT30;54893;49.864;19.084;2023-01-08T03:17:42;1.26;96.38
68109;SHT30;54893;49.864;19.084;2023-01-08T03:22:46;1.29;96.53
68109;SHT30;54893;49.864;19.084;2023-01-08T03:27:50;0.74;96.03
68109;SHT30;54893;49.864;19.084;2023-01-08T03:32:53;0.74;97.17
68109;SHT30;54893;49.864;19.084;2023-01-08T03:38:02;0.36;97.24
68109;SHT30;54893;49.864;19.084;2023-01-08T03:43:03;0.09;98.21
68109;SHT30;54893;49.864;19.084;2023-01-08T03:48:04;0.27;99.17
68109;SHT30;54893;49.864;19.084;2023-01-08T03:53:07;0.34;99.20
68109;SHT30;54893;49.864;19.084;2023-01-08T03:58:08;0.37;99.21
68109;SHT30;54893;49.864;19.084;2023-01-08T04:03:08;0.43;99.38
68109;SHT30;54893;49.864;19.084;2023-01-08T04:08:08;0.44;99.04
68109;SHT30;54893;49.864;19.084;2023-01-08T04:13:09;0.88;98.33
68109;SHT30;54893;49.864;19.084;2023-01-08T04:18:09;0.85;98.37
68109;SHT30;54893;49.864;19.084;2023-01-08T04:23:09;1.04;98.73
68109;SHT30;54893;49.864;19.084;2023-01-08T04:28:10;1.18;98.41
68109;SHT30;54893;49.864;19.084;2023-01-08T04:33:12;1.21;97.59
68109;SHT30;54893;49.864;19.084;2023-01-08T04:38:12;1.05;97.51
68109;SHT30;54893;49.864;19.084;2023-01-08T04:43:12;0.54;97.52
68109;SHT30;54893;49.864;19.084;2023-01-08T04:48:13;0.37;98.14
68109;SHT30;54893;49.864;19.084;2023-01-08T04:53:13;0.54;98.30
68109;SHT30;54893;49.864;19.084;2023-01-08T04:58:13;0.46;98.30
68109;SHT30;54893;49.864;19.084;2023-01-08T05:03:14;0.46;98.57
68109;SHT30;54893;49.864;19.084;2023-01-08T05:08:14;0.60;98.86
68109;SHT30;54893;49.864;19.084;2023-01-08T05:13:14;0.78;99.04
68109;SHT30;54893;49.864;19.084;2023-01-08T05:18:15;1.12;96.45
68109;SHT30;54893;49.864;19.084;2023-01-08T05:23:15;1.42;95.44
68109;SHT30;54893;49.864;19.084;2023-01-08T05:28:15;2.02;94.94
68109;SHT30;54893;49.864;19.084;2023-01-08T05:33:16;2.07;94.31
68109;SHT30;54893;49.864;19.084;2023-01-08T05:38:16;1.84;95.04
68109;SHT30;54893;49.864;19.084;2023-01-08T05:43:17;1.73;96.13
68109;SHT30;54893;49.864;19.084;2023-01-08T05:48:17;1.32;96.20
68109;SHT30;54893;49.864;19.084;2023-01-08T05:53:17;1.39;97.06
68109;SHT30;54893;49.864;19.084;2023-01-08T05:58:18;1.76;96.89
68109;SHT30;54893;49.864;19.084;2023-01-08T06:03:22;1.52;96.19
68109;SHT30;54893;49.864;19.084;2023-01-08T06:08:23;1.73;96.35
68109;SHT30;54893;49.864;19.084;2023-01-08T06:13:23;1.08;96.23
68109;SHT30;54893;49.864;19.084;2023-01-08T06:18:23;0.72;97.56
68109;SHT30;54893;49.864;19.084;2023-01-08T06:23:24;1.16;97.73
68109;SHT30;54893;49.864;19.084;2023-01-08T06:28:25;1.14;97.77
68109;SHT30;54893;49.864;19.084;2023-01-08T06:33:25;0.61;97.22
68109;SHT30;54893;49.864;19.084;2023-01-08T06:38:26;0.31;97.94
68109;SHT30;54893;49.864;19.084;2023-01-08T06:43:26;0.39;98.84
68109;SHT30;54893;49.864;19.084;2023-01-08T06:48:26;0.51;99.23
68109;SHT30;54893;49.864;19.084;2023-01-08T06:53:27;0.80;99.99
68109;SHT30;54893;49.864;19.084;2023-01-08T06:58:27;0.78;99.61
68109;SHT30;54893;49.864;19.084;2023-01-08T07:03:28;0.81;99.42
68109;SHT30;54893;49.864;19.084;2023-01-08T07:08:28;0.89;99.35
68109;SHT30;54893;49.864;19.084;2023-01-08T07:13:28;0.96;99.19
68109;SHT30;54893;49.864;19.084;2023-01-08T07:18:29;0.99;98.80
68109;SHT30;54893;49.864;19.084;2023-01-08T07:23:29;1.45;99.25
68109;SHT30;54893;49.864;19.084;2023-01-08T07:28:30;1.63;98.39
68109;SHT30;54893;49.864;19.084;2023-01-08T07:33:30;1.67;97.11
68109;SHT30;54893;49.864;19.084;2023-01-08T07:38:31;1.69;97.61
68109;SHT30;54893;49.864;19.084;2023-01-08T07:43:31;1.80;96.78
68109;SHT30;54893;49.864;19.084;2023-01-08T07:48:32;2.24;97.39
68109;SHT30;54893;49.864;19.084;2023-01-08T07:53:33;2.82;96.32
68109;SHT30;54893;49.864;19.084;2023-01-08T07:58:34;3.18;95.44
68109;SHT30;54893;49.864;19.084;2023-01-08T08:03:34;3.50;94.53
68109;SHT30;54893;49.864;19.084;2023-01-08T08:08:35;3.76;93.76
68109;SHT30;54893;49.864;19.084;2023-01-08T08:13:35;4.20;94.83
68109;SHT30;54893;49.864;19.084;2023-01-08T08:18:36;4.52;94.27
68109;SHT30;54893;49.864;19.084;2023-01-08T08:23:36;4.69;94.48
68109;SHT30;54893;49.864;19.084;2023-01-08T08:28:36;4.68;94.12
68109;SHT30;54893;49.864;19.084;2023-01-08T08:33:37;4.48;94.35
68109;SHT30;54893;49.864;19.084;2023-01-08T08:38:37;4.41;93.91
68109;SHT30;54893;49.864;19.084;2023-01-08T08:43:38;4.45;94.15
68109;SHT30;54893;49.864;19.084;2023-01-08T08:48:39;4.41;93.05
68109;SHT30;54893;49.864;19.084;2023-01-08T08:53:39;4.38;92.61
68109;SHT30;54893;49.864;19.084;2023-01-08T08:58:39;4.55;92.70
68109;SHT30;54893;49.864;19.084;2023-01-08T09:03:44;4.68;93.24
68109;SHT30;54893;49.864;19.084;2023-01-08T09:08:44;4.71;92.75
68109;SHT30;54893;49.864;19.084;2023-01-08T09:13:45;4.72;92.69
68109;SHT30;54893;49.864;19.084;2023-01-08T09:18:45;4.47;93.15
68109;SHT30;54893;49.864;19.084;2023-01-08T09:23:47;4.38;93.88
68109;SHT30;54893;49.864;19.084;2023-01-08T09:28:48;4.64;93.30
68109;SHT30;54893;49.864;19.084;2023-01-08T09:33:48;5.00;92.56
68109;SHT30;54893;49.864;19.084;2023-01-08T09:38:49;5.16;91.87
68109;SHT30;54893;49.864;19.084;2023-01-08T09:43:51;4.97;91.50
68109;SHT30;54893;49.864;19.084;2023-01-08T09:48:55;4.99;91.72
68109;SHT30;54893;49.864;19.084;2023-01-08T09:53:57;5.09;91.94
68109;SHT30;54893;49.864;19.084;2023-01-08T09:58:59;5.29;91.26
68109;SHT30;54893;49.864;19.084;2023-01-08T10:04:03;5.93;90.79
68109;SHT30;54893;49.864;19.084;2023-01-08T10:09:04;7.13;87.87
68109;SHT30;54893;49.864;19.084;2023-01-08T10:14:23;7.74;86.94
68109;SHT30;54893;49.864;19.084;2023-01-08T10:19:24;7.56;85.79
68109;SHT30;54893;49.864;19.084;2023-01-08T10:24:33;7.27;87.56
68109;SHT30;54893;49.864;19.084;2023-01-08T10:29:34;6.76;84.26
68109;SHT30;54893;49.864;19.084;2023-01-08T10:39:45;7.03;87.40
68109;SHT30;54893;49.864;19.084;2023-01-08T10:45:13;7.34;85.98
68109;SHT30;54893;49.864;19.084;2023-01-08T10:50:20;7.24;83.86
68109;SHT30;54893;49.864;19.084;2023-01-08T11:00:31;7.24;84.49
68109;SHT30;54893;49.864;19.084;2023-01-08T11:05:36;7.77;86.91
68109;SHT30;54893;49.864;19.084;2023-01-08T11:10:37;7.99;82.37
68109;SHT30;54893;49.864;19.084;2023-01-08T11:15:39;7.88;81.24
68109;SHT30;54893;49.864;19.084;2023-01-08T11:20:40;7.59;84.06
68109;SHT30;54893;49.864;19.084;2023-01-08T11:25:49;7.74;84.43
68109;SHT30;54893;49.864;19.084;2023-01-08T11:30:59;7.80;82.31
68109;SHT30;54893;49.864;19.084;2023-01-08T11:36:19;7.80;82.79
68109;SHT30;54893;49.864;19.084;2023-01-08T11:47:12;7.74;82.78
68109;SHT30;54893;49.864;19.084;2023-01-08T11:58:09;7.02;84.42
68109;SHT30;54893;49.864;19.084;2023-01-08T12:35:39;7.24;84.43
68109;SHT30;54893;49.864;19.084;2023-01-08T12:40:46;7.13;85.50
68109;SHT30;54893;49.864;19.084;2023-01-08T12:45:51;7.27;84.77
68109;SHT30;54893;49.864;19.084;2023-01-08T13:01:58;6.97;83.17
68109;SHT30;54893;49.864;19.084;2023-01-08T13:07:03;7.02;83.99
68109;SHT30;54893;49.864;19.084;2023-01-08T13:12:04;6.89;84.68
68109;SHT30;54893;49.864;19.084;2023-01-08T13:17:14;6.64;85.66
68109;SHT30;54893;49.864;19.084;2023-01-08T13:22:23;6.46;86.11
68109;SHT30;54893;49.864;19.084;2023-01-08T13:27:28;6.28;86.70
68109;SHT30;54893;49.864;19.084;2023-01-08T13:32:39;6.27;86.79
68109;SHT30;54893;49.864;19.084;2023-01-08T13:37:45;6.14;87.04
68109;SHT30;54893;49.864;19.084;2023-01-08T13:42:47;5.93;87.46
68109;SHT30;54893;49.864;19.084;2023-01-08T13:47:48;5.70;88.18
68109;SHT30;54893;49.864;19.084;2023-01-08T13:53:10;5.54;89.20
68109;SHT30;54893;49.864;19.084;2023-01-08T13:58:17;5.46;88.76
68109;SHT30;54893;49.864;19.084;2023-01-08T14:03:34;5.22;89.32
68109;SHT30;54893;49.864;19.084;2023-01-08T14:08:36;5.06;89.58
68109;SHT30;54893;49.864;19.084;2023-01-08T14:13:36;4.99;90.30
68109;SHT30;54893;49.864;19.084;2023-01-08T14:18:44;4.67;91.26
68109;SHT30;54893;49.864;19.084;2023-01-08T14:23:46;4.48;91.54
68109;SHT30;54893;49.864;19.084;2023-01-08T14:28:51;4.61;90.88
68109;SHT30;54893;49.864;19.084;2023-01-08T14:33:53;4.65;90.88
68109;SHT30;54893;49.864;19.084;2023-01-08T14:38:54;4.20;91.55
68109;SHT30;54893;49.864;19.084;2023-01-08T14:43:54;3.93;93.41
68109;SHT30;54893;49.864;19.084;2023-01-08T14:48:55;3.90;92.95
68109;SHT30;54893;49.864;19.084;2023-01-08T14:54:00;3.97;92.92
68109;SHT30;54893;49.864;19.084;2023-01-08T14:59:07;3.66;94.17
68109;SHT30;54893;49.864;19.084;2023-01-08T15:04:16;3.25;95.08
68109;SHT30;54893;49.864;19.084;2023-01-08T15:09:27;3.05;95.86
68109;SHT30;54893;49.864;19.084;2023-01-08T15:14:29;2.82;95.82
68109;SHT30;54893;49.864;19.084;2023-01-08T15:19:39;2.70;96.07
68109;SHT30;54893;49.864;19.084;2023-01-08T15:24:41;2.75;96.24
68109;SHT30;54893;49.864;19.084;2023-01-08T15:29:49;2.74;96.58
68109;SHT30;54893;49.864;19.084;2023-01-08T15:34:49;2.58;97.07
68109;SHT30;54893;49.864;19.084;2023-01-08T15:39:50;2.54;97.17
68109;SHT30;54893;49.864;19.084;2023-01-08T15:44:50;2.51;97.25
68109;SHT30;54893;49.864;19.084;2023-01-08T15:49:50;2.62;95.99
68109;SHT30;54893;49.864;19.084;2023-01-08T15:54:53;2.61;96.12
68109;SHT30;54893;49.864;19.084;2023-01-08T15:59:53;2.51;97.08
68109;SHT30;54893;49.864;19.084;2023-01-08T16:04:55;2.33;96.95
68109;SHT30;54893;49.864;19.084;2023-01-08T16:09:56;2.06;97.22
68109;SHT30;54893;49.864;19.084;2023-01-08T16:14:56;1.97;97.39
68109;SHT30;54893;49.864;19.084;2023-01-08T16:19:56;2.02;97.74
68109;SHT30;54893;49.864;19.084;2023-01-08T16:24:57;2.07;98.18
68109;SHT30;54893;49.864;19.084;2023-01-08T16:29:57;2.14;98.05
68109;SHT30;54893;49.864;19.084;2023-01-08T16:34:57;2.24;98.10
68109;SHT30;54893;49.864;19.084;2023-01-08T16:39:58;2.48;97.02
68109;SHT30;54893;49.864;19.084;2023-01-08T16:44:58;2.74;96.28
68109;SHT30;54893;49.864;19.084;2023-01-08T16:49:58;2.84;96.03
68109;SHT30;54893;49.864;19.084;2023-01-08T16:54:58;2.99;97.09
68109;SHT30;54893;49.864;19.084;2023-01-08T16:59:59;2.98;96.92
68109;SHT30;54893;49.864;19.084;2023-01-08T17:04:59;2.98;96.46
68109;SHT30;54893;49.864;19.084;2023-01-08T17:10:00;3.08;96.07
68109;SHT30;54893;49.864;19.084;2023-01-08T17:15:00;3.02;96.51
68109;SHT30;54893;49.864;19.084;2023-01-08T17:20:01;3.05;96.74
68109;SHT30;54893;49.864;19.084;2023-01-08T17:25:01;3.16;95.06
68109;SHT30;54893;49.864;19.084;2023-01-08T17:30:02;3.40;95.75
68109;SHT30;54893;49.864;19.084;2023-01-08T17:35:04;3.64;94.92
68109;SHT30;54893;49.864;19.084;2023-01-08T17:40:05;3.74;94.98
68109;SHT30;54893;49.864;19.084;2023-01-08T17:45:06;3.84;93.97
68109;SHT30;54893;49.864;19.084;2023-01-08T17:50:07;3.79;94.13
68109;SHT30;54893;49.864;19.084;2023-01-08T17:55:08;3.59;94.60
68109;SHT30;54893;49.864;19.084;2023-01-08T18:00:09;3.62;94.75
68109;SHT30;54893;49.864;19.084;2023-01-08T18:05:09;3.70;94.76
68109;SHT30;54893;49.864;19.084;2023-01-08T18:10:10;3.76;93.25
68109;SHT30;54893;49.864;19.084;2023-01-08T18:15:12;4.07;93.27
68109;SHT30;54893;49.864;19.084;2023-01-08T18:20:13;4.10;93.35
68109;SHT30;54893;49.864;19.084;2023-01-08T18:25:13;4.28;92.76
68109;SHT30;54893;49.864;19.084;2023-01-08T18:30:14;4.51;91.98
68109;SHT30;54893;49.864;19.084;2023-01-08T18:35:14;4.64;91.46
68109;SHT30;54893;49.864;19.084;2023-01-08T18:40:15;4.41;92.58
68109;SHT30;54893;49.864;19.084;2023-01-08T18:45:15;4.40;92.38
68109;SHT30;54893;49.864;19.084;2023-01-08T18:50:16;4.30;92.89
68109;SHT30;54893;49.864;19.084;2023-01-08T18:55:16;4.11;93.28
68109;SHT30;54893;49.864;19.084;2023-01-08T19:00:17;4.05;93.91
68109;SHT30;54893;49.864;19.084;2023-01-08T19:05:17;3.97;94.48
68109;SHT30;54893;49.864;19.084;2023-01-08T19:10:18;3.91;94.43
68109;SHT30;54893;49.864;19.084;2023-01-08T19:15:19;4.03;94.00
68109;SHT30;54893;49.864;19.084;2023-01-08T19:20:19;4.27;92.97
68109;SHT30;54893;49.864;19.084;2023-01-08T19:25:19;4.40;92.44
68109;SHT30;54893;49.864;19.084;2023-01-08T19:30:20;4.42;92.36
68109;SHT30;54893;49.864;19.084;2023-01-08T19:35:20;4.38;92.17
68109;SHT30;54893;49.864;19.084;2023-01-08T19:40:21;4.49;92.28
68109;SHT30;54893;49.864;19.084;2023-01-08T19:45:21;4.64;91.99
68109;SHT30;54893;49.864;19.084;2023-01-08T19:50:22;4.78;91.60
68109;SHT30;54893;49.864;19.084;2023-01-08T19:55:22;4.73;91.79
68109;SHT30;54893;49.864;19.084;2023-01-08T20:00:23;4.78;91.47
68109;SHT30;54893;49.864;19.084;2023-01-08T20:05:23;4.89;90.89
68109;SHT30;54893;49.864;19.084;2023-01-08T20:10:24;4.96;91.28
68109;SHT30;54893;49.864;19.084;2023-01-08T20:15:24;4.97;91.24
68109;SHT30;54893;49.864;19.084;2023-01-08T20:20:24;4.96;91.07
68109;SHT30;54893;49.864;19.084;2023-01-08T20:25:25;4.92;91.25
68109;SHT30;54893;49.864;19.084;2023-01-08T20:30:25;5.02;91.07
68109;SHT30;54893;49.864;19.084;2023-01-08T20:35:26;5.11;90.66
68109;SHT30;54893;49.864;19.084;2023-01-08T20:40:26;5.22;90.54
68109;SHT30;54893;49.864;19.084;2023-01-08T20:45:26;5.42;89.94
68109;SHT30;54893;49.864;19.084;2023-01-08T20:50:27;5.33;89.90
68109;SHT30;54893;49.864;19.084;2023-01-08T20:55:27;5.46;89.76
68109;SHT30;54893;49.864;19.084;2023-01-08T21:00:27;5.36;90.05
68109;SHT30;54893;49.864;19.084;2023-01-08T21:05:28;5.42;89.80
68109;SHT30;54893;49.864;19.084;2023-01-08T21:10:29;5.44;89.66
68109;SHT30;54893;49.864;19.084;2023-01-08T21:15:29;5.30;90.21
68109;SHT30;54893;49.864;19.084;2023-01-08T21:20:30;5.30;90.33
68109;SHT30;54893;49.864;19.084;2023-01-08T21:25:30;5.20;90.92
68109;SHT30;54893;49.864;19.084;2023-01-08T21:30:33;5.11;91.27
68109;SHT30;54893;49.864;19.084;2023-01-08T21:35:34;5.25;90.73
68109;SHT30;54893;49.864;19.084;2023-01-08T21:40:34;5.42;90.13
68109;SHT30;54893;49.864;19.084;2023-01-08T21:45:34;5.61;90.01
68109;SHT30;54893;49.864;19.084;2023-01-08T21:50:35;5.83;89.24
68109;SHT30;54893;49.864;19.084;2023-01-08T21:55:35;5.90;89.52
68109;SHT30;54893;49.864;19.084;2023-01-08T22:00:36;6.39;88.08
68109;SHT30;54893;49.864;19.084;2023-01-08T22:05:37;6.76;87.17
68109;SHT30;54893;49.864;19.084;2023-01-08T22:10:39;7.05;86.39
68109;SHT30;54893;49.864;19.084;2023-01-08T22:15:39;7.13;86.30
68109;SHT30;54893;49.864;19.084;2023-01-08T22:20:39;7.23;86.10
68109;SHT30;54893;49.864;19.084;2023-01-08T22:25:41;6.72;86.43
68109;SHT30;54893;49.864;19.084;2023-01-08T22:30:42;6.56;87.49
68109;SHT30;54893;49.864;19.084;2023-01-08T22:35:42;6.62;87.14
68109;SHT30;54893;49.864;19.084;2023-01-08T22:40:43;6.35;87.90
68109;SHT30;54893;49.864;19.084;2023-01-08T22:45:50;6.27;87.79
68109;SHT30;54893;49.864;19.084;2023-01-08T22:50:51;5.93;88.80
68109;SHT30;54893;49.864;19.084;2023-01-08T22:55:51;5.59;89.74
68109;SHT30;54893;49.864;19.084;2023-01-08T23:00:52;5.33;90.51
68109;SHT30;54893;49.864;19.084;2023-01-08T23:06:00;5.13;90.54
68109;SHT30;54893;49.864;19.084;2023-01-08T23:11:00;4.99;90.87
68109;SHT30;54893;49.864;19.084;2023-01-08T23:16:03;4.75;91.49
68109;SHT30;54893;49.864;19.084;2023-01-08T23:21:06;4.65;92.24
68109;SHT30;54893;49.864;19.084;2023-01-08T23:26:10;4.55;91.83
68109;SHT30;54893;49.864;19.084;2023-01-08T23:31:14;4.45;92.01
68109;SHT30;54893;49.864;19.084;2023-01-08T23:36:14;4.10;92.67
68109;SHT30;54893;49.864;19.084;2023-01-08T23:41:18;3.89;95.15
68109;SHT30;54893;49.864;19.084;2023-01-08T23:46:19;3.69;94.65
68109;SHT30;54893;49.864;19.084;2023-01-08T23:51:20;3.28;95.22
68109;SHT30;54893;49.864;19.084;2023-01-08T23:56:25;3.02;95.97
